This is the latest recevied weather packets stored in our database for station/object KB9GXK. If no packets are shown the sender has not sent any weather packets the latest 10 day(s).
| Time | Temp. | Humidity | Pressure | Rain* | Wind** | Luminosity | Snow |
|---|---|---|---|---|---|---|---|
| 1778094524 | 14.44° C | 35% | 1013.9 hPa | 0 mm | - | 876 W/m² | - |
| 1778094220 | 13.33° C | 36% | 1013.9 hPa | 0 mm | - | 425 W/m² | - |
| 1778093918 | 13.33° C | 36% | 1013.9 hPa | 0 mm | - | 314 W/m² | - |
| 1778093615 | 13.33° C | 35% | 1013.8 hPa | 0 mm | - | 261 W/m² | - |
| 1778093312 | 12.78° C | 36% | 1013.7 hPa | 0 mm | - | 245 W/m² | - |
| 1778093009 | 13.33° C | 38% | 1014 hPa | 0 mm | - | 278 W/m² | - |
| 1778092706 | 13.33° C | 36% | 1014 hPa | 0 mm | - | 248 W/m² | - |
| 1778092401 | 13.89° C | 34% | 1013.9 hPa | 0 mm | - | 261 W/m² | - |
| 1778092099 | 13.33° C | 36% | 1013.7 hPa | 0 mm | - | 295 W/m² | - |
| 1778091796 | 13.33° C | 36% | 1013.8 hPa | 0 mm | - | 293 W/m² | - |
| 1778091494 | 13.89° C | 36% | 1013.7 hPa | 0 mm | - | 720 W/m² | - |
| 1778091191 | 13.89° C | 36% | 1013.7 hPa | 0 mm | - | 387 W/m² | - |
| 1778090888 | 13.33° C | 35% | 1013.8 hPa | 0 mm | - | 352 W/m² | - |
| 1778090584 | 13.33° C | 35% | 1013.6 hPa | 0 mm | - | 349 W/m² | - |
| 1778090281 | 13.33° C | 35% | 1013.8 hPa | 0 mm | - | 296 W/m² | - |
| 1778089977 | 13.33° C | 35% | 1014 hPa | 0 mm | - | 280 W/m² | - |
| 1778089675 | 13.89° C | 34% | 1014 hPa | 0 mm | - | 410 W/m² | - |
| 1778089372 | 14.44° C | 33% | 1013.9 hPa | 0 mm | - | 287 W/m² | - |
| 1778089070 | 14.44° C | 33% | 1013.9 hPa | 0 mm | - | 319 W/m² | - |
| 1778088766 | 13.33° C | 36% | 1013.8 hPa | 0 mm | - | 694 W/m² | - |
| 1778088463 | 13.89° C | 35% | 1014 hPa | 0 mm | - | 326 W/m² | - |
| 1778088159 | 13.89° C | 35% | 1013.9 hPa | 0 mm | - | 377 W/m² | - |
| 1778087857 | 13.33° C | 35% | 1014.1 hPa | 0 mm | - | 1018 W/m² | - |
| 1778087554 | 13.89° C | 33% | 1014.2 hPa | 0 mm | - | 295 W/m² | - |
| 1778087252 | 13.89° C | 35% | 1014.3 hPa | 0 mm | - | 362 W/m² | - |
* Rain latest hour (hover to see other rain measurements)
** Current wind speed in m/s (hover to see current wind gust speed)